International Virtual Aviation Organisation

Russian Federation and Kazakhstan MCD

 
USHH 271600Z 12001MPS CAVOK M15/M17 Q1036 R06/450445 TEMPO 2000 SN BKN004
QNH:(hPa/inHg/mmHg)1036 / 30.59 / 777
QFE:(hPa/inHg/mmHg)1031 / 30.44 / 773
Temperature-15
Dew Point-17
Visibility2000
WeatherCAVOK;Snow
Cloud CoverBKN (400);
Transition Height800 m./2800 ft.
Transition LevelFL40
SQUAWK